Time;durP1;ratioP1;P1;durP2;ratioP2;P2;SDS_P1;SDS_P2;PMS_P1;PMS_P2;Temp;Humidity;BMP_temperature;BMP_pressure;BME280_temperature;BME280_humidity;BME280_pressure;Samples;Min_cycle;Max_cycle;Signal;HPM_P1;HPM_P2
2023/06/25 00:01:00;;;;;;;4.63;3.17;;;27.70;99.90;;;;;;5074562;28;20394;-57
2023/06/25 00:03:26;;;;;;;4.75;3.00;;;27.70;99.90;;;;;;5074534;28;20378;-58
2023/06/25 00:05:52;;;;;;;3.58;2.58;;;27.70;99.90;;;;;;5074466;28;20035;-58
2023/06/25 00:08:17;;;;;;;5.28;2.92;;;27.90;99.90;;;;;;5075556;28;20029;-56
2023/06/25 00:10:43;;;;;;;6.22;2.50;;;27.80;99.90;;;;;;5072635;28;20413;-59
2023/06/25 00:13:09;;;;;;;4.20;2.38;;;27.80;99.90;;;;;;5066549;28;20025;-57
2023/06/25 00:15:34;;;;;;;5.90;2.70;;;27.50;99.90;;;;;;5075287;28;20074;-57
2023/06/25 00:18:00;;;;;;;5.00;2.60;;;27.70;99.90;;;;;;5072193;28;20021;-57
2023/06/25 00:20:26;;;;;;;4.05;2.28;;;27.50;99.90;;;;;;5072853;28;20044;-57
2023/06/25 00:22:52;;;;;;;5.95;2.85;;;27.60;99.90;;;;;;5072739;28;20087;-56
2023/06/25 00:25:18;;;;;;;2.78;2.20;;;27.60;99.90;;;;;;5062502;28;20033;-57
2023/06/25 00:27:47;;;;;;;4.13;2.83;;;27.40;99.90;;;;;;5073665;28;20040;-57
2023/06/25 00:30:16;;;;;;;5.75;2.40;;;27.60;99.90;;;;;;5074466;28;20040;-58
2023/06/25 00:32:45;;;;;;;3.95;2.70;;;27.50;99.90;;;;;;5062265;28;20024;-57
2023/06/25 00:35:12;;;;;;;4.00;2.90;;;27.50;99.90;;;;;;5073721;28;20033;-59
2023/06/25 00:37:45;;;;;;;6.65;3.30;;;27.50;99.90;;;;;;5075191;28;20040;-58
2023/06/25 00:40:26;;;;;;;5.80;3.25;;;27.30;99.90;;;;;;5073813;28;20504;-58
2023/06/25 00:42:58;;;;;;;5.53;3.08;;;27.30;99.90;;;;;;5073317;28;20032;-58
2023/06/25 00:45:27;;;;;;;4.88;2.75;;;27.10;99.90;;;;;;5075059;28;20378;-58
2023/06/25 00:47:53;;;;;;;2.80;2.53;;;27.20;99.90;;;;;;5072761;28;20056;-58
2023/06/25 00:50:21;;;;;;;5.05;2.85;;;27.20;99.90;;;;;;5072643;28;20040;-58
2023/06/25 00:52:51;;;;;;;4.78;3.05;;;27.20;99.90;;;;;;5074894;28;20100;-58
2023/06/25 00:55:18;;;;;;;5.90;2.92;;;27.20;99.90;;;;;;5066953;28;20021;-57
2023/06/25 00:57:44;;;;;;;9.32;3.22;;;27.20;99.90;;;;;;5066777;28;20050;-57
2023/06/25 01:00:14;;;;;;;5.85;2.58;;;27.10;99.90;;;;;;5073939;28;20024;-58
2023/06/25 01:02:43;;;;;;;7.47;2.60;;;27.20;99.90;;;;;;5073932;28;20482;-58
2023/06/25 01:05:39;;;;;;;5.07;2.70;;;27.10;99.90;;;;;;5073610;28;20039;-54
2023/06/25 01:08:10;;;;;;;5.32;2.33;;;27.10;99.90;;;;;;5060665;28;20021;-56
2023/06/25 01:10:37;;;;;;;4.35;2.42;;;27.00;99.90;;;;;;5072617;28;20041;-57
2023/06/25 01:13:04;;;;;;;7.45;2.40;;;27.10;99.90;;;;;;5071408;28;20043;-58
2023/06/25 01:15:30;;;;;;;4.90;2.20;;;27.10;99.90;;;;;;5073677;28;20035;-57
2023/06/25 01:17:57;;;;;;;4.30;2.67;;;27.10;99.90;;;;;;5071568;28;20390;-59
2023/06/25 01:20:26;;;;;;;2.33;2.10;;;27.00;99.90;;;;;;5074016;28;20044;-58
2023/06/25 01:22:52;;;;;;;2.10;2.00;;;27.10;99.90;;;;;;5073118;28;20509;-59
2023/06/25 01:25:18;;;;;;;2.95;2.28;;;26.90;99.90;;;;;;5074232;28;20119;-59
2023/06/25 01:27:44;;;;;;;2.83;2.30;;;26.90;99.90;;;;;;5073145;28;20068;-58
2023/06/25 01:30:11;;;;;;;5.93;2.00;;;27.00;99.90;;;;;;5072902;28;20036;-58
2023/06/25 01:32:41;;;;;;;2.50;1.80;;;26.80;99.90;;;;;;5070437;28;20493;-58
2023/06/25 01:35:07;;;;;;;3.00;1.80;;;26.80;99.90;;;;;;5070648;28;20032;-57
2023/06/25 01:37:33;;;;;;;2.38;1.92;;;26.70;99.90;;;;;;5073090;28;20016;-56
2023/06/25 01:39:59;;;;;;;1.73;1.63;;;26.80;99.90;;;;;;5071120;28;20028;-55
2023/06/25 01:42:25;;;;;;;2.42;2.10;;;26.90;99.90;;;;;;5072800;28;20094;-58
2023/06/25 01:44:51;;;;;;;3.35;2.05;;;26.80;99.90;;;;;;5073110;28;20024;-56
2023/06/25 01:47:16;;;;;;;2.63;2.17;;;26.70;99.90;;;;;;5066218;28;20025;-57
2023/06/25 01:49:42;;;;;;;3.00;1.90;;;26.70;99.90;;;;;;5065137;28;20097;-59
2023/06/25 01:52:08;;;;;;;3.05;1.55;;;26.70;99.90;;;;;;5069562;28;20040;-57
2023/06/25 01:54:34;;;;;;;6.22;2.03;;;26.50;99.90;;;;;;5072761;28;20051;-59
2023/06/25 01:57:01;;;;;;;2.80;1.50;;;26.70;99.90;;;;;;5072006;28;20029;-55
2023/06/25 01:59:27;;;;;;;3.25;2.45;;;26.70;99.90;;;;;;5068749;28;20041;-57
2023/06/25 02:01:53;;;;;;;3.38;1.77;;;26.60;99.90;;;;;;5053839;28;20100;-58
2023/06/25 02:04:19;;;;;;;3.25;1.70;;;26.50;99.90;;;;;;5072606;28;20035;-58
2023/06/25 02:06:45;;;;;;;2.45;1.85;;;26.50;99.90;;;;;;5073459;28;20025;-59
2023/06/25 02:09:11;;;;;;;1.60;1.50;;;26.50;99.90;;;;;;5070488;28;20033;-58
2023/06/25 02:11:36;;;;;;;1.95;1.42;;;26.40;99.90;;;;;;5073281;28;20040;-59
2023/06/25 02:14:05;;;;;;;6.18;2.00;;;26.40;99.90;;;;;;5063958;28;20021;-57
2023/06/25 02:16:31;;;;;;;2.13;1.92;;;26.30;99.90;;;;;;5066233;28;20032;-58
2023/06/25 02:18:57;;;;;;;2.05;1.80;;;26.30;99.90;;;;;;5072118;28;20025;-57
2023/06/25 02:21:22;;;;;;;2.88;1.90;;;26.30;99.90;;;;;;5073082;28;20107;-59
2023/06/25 02:23:48;;;;;;;2.67;1.83;;;26.20;99.90;;;;;;5071319;28;20091;-59
2023/06/25 02:26:14;;;;;;;2.65;1.55;;;26.20;99.90;;;;;;5072232;28;20033;-58
2023/06/25 02:28:39;;;;;;;3.33;1.35;;;26.20;99.90;;;;;;5072990;28;20049;-60
2023/06/25 02:31:05;;;;;;;2.25;1.95;;;26.20;99.90;;;;;;5070781;28;20136;-59
2023/06/25 02:33:31;;;;;;;2.00;1.42;;;26.20;99.90;;;;;;5072970;28;20044;-58
2023/06/25 02:35:57;;;;;;;1.75;1.40;;;26.10;99.90;;;;;;5070943;28;20028;-58
2023/06/25 02:38:23;;;;;;;1.75;1.65;;;26.10;99.90;;;;;;5068387;28;20059;-58
2023/06/25 02:40:48;;;;;;;2.22;1.55;;;26.10;99.90;;;;;;5072926;28;20052;-57
2023/06/25 02:43:14;;;;;;;2.90;2.28;;;26.10;99.90;;;;;;5071805;28;20390;-58
2023/06/25 02:45:40;;;;;;;2.00;1.20;;;26.00;99.90;;;;;;5072945;28;20029;-58
2023/06/25 02:48:05;;;;;;;1.83;1.48;;;25.90;99.90;;;;;;5072604;28;20025;-56
2023/06/25 02:50:31;;;;;;;2.30;1.52;;;26.10;99.90;;;;;;5054571;28;20039;-58
2023/06/25 02:52:57;;;;;;;4.47;1.50;;;26.10;99.90;;;;;;5070800;28;20434;-58
2023/06/25 02:55:23;;;;;;;1.90;1.02;;;26.00;99.90;;;;;;5069668;28;20028;-58
2023/06/25 02:57:48;;;;;;;3.97;1.48;;;26.10;99.90;;;;;;5058600;28;20493;-57
2023/06/25 03:00:14;;;;;;;3.15;1.48;;;26.00;99.90;;;;;;5063617;28;20385;-58
2023/06/25 03:02:40;;;;;;;2.05;1.25;;;25.90;99.90;;;;;;5072377;28;20024;-57
2023/06/25 03:05:06;;;;;;;1.20;1.10;;;26.00;99.90;;;;;;5071453;28;20378;-57
2023/06/25 03:07:31;;;;;;;1.40;1.20;;;26.00;99.90;;;;;;5067599;28;20035;-59
2023/06/25 03:09:57;;;;;;;1.38;1.27;;;25.80;99.90;;;;;;5071085;28;20033;-58
2023/06/25 03:12:23;;;;;;;1.70;1.02;;;25.90;99.90;;;;;;5071716;28;20028;-58
2023/06/25 03:14:48;;;;;;;2.75;1.33;;;25.90;99.90;;;;;;5072876;28;20031;-58
2023/06/25 03:17:14;;;;;;;3.13;1.23;;;25.90;99.90;;;;;;5070142;28;20044;-58
2023/06/25 03:19:40;;;;;;;1.45;1.10;;;26.00;99.90;;;;;;5072453;28;20108;-59
2023/06/25 03:22:05;;;;;;;2.20;1.30;;;25.90;99.90;;;;;;5070663;28;20016;-57
2023/06/25 03:24:31;;;;;;;1.33;1.17;;;25.80;99.90;;;;;;5073183;28;20032;-58
2023/06/25 03:26:57;;;;;;;2.67;1.20;;;25.90;99.90;;;;;;5075682;28;20032;-58
2023/06/25 03:29:22;;;;;;;0.95;0.93;;;25.90;99.90;;;;;;5076333;28;20402;-58
2023/06/25 03:31:49;;;;;;;2.03;0.90;;;25.90;99.90;;;;;;5075287;28;20040;-58
2023/06/25 03:34:15;;;;;;;1.42;1.33;;;25.90;99.90;;;;;;5076296;28;20025;-59
2023/06/25 03:36:41;;;;;;;2.05;1.00;;;25.90;99.90;;;;;;5073780;28;20031;-57
2023/06/25 03:39:06;;;;;;;1.10;1.02;;;25.90;99.90;;;;;;5076267;28;20025;-55
2023/06/25 03:41:32;;;;;;;0.85;0.82;;;25.90;99.90;;;;;;5073992;28;20409;-56
2023/06/25 03:43:57;;;;;;;2.10;0.93;;;26.00;99.90;;;;;;5076087;28;20024;-59
2023/06/25 03:46:23;;;;;;;1.77;1.00;;;25.90;99.90;;;;;;5075092;28;20371;-59
2023/06/25 03:48:49;;;;;;;1.98;1.17;;;25.80;99.90;;;;;;5076289;28;20032;-57
2023/06/25 03:51:14;;;;;;;1.70;1.13;;;25.80;99.90;;;;;;5074895;28;20123;-59
2023/06/25 03:53:41;;;;;;;1.05;0.93;;;25.80;99.90;;;;;;5072420;28;20093;-57
2023/06/25 03:56:07;;;;;;;1.98;1.00;;;25.80;99.90;;;;;;5074566;28;20477;-59
2023/06/25 03:58:36;;;;;;;1.40;0.90;;;25.80;99.90;;;;;;5071207;28;20493;-58
2023/06/25 04:01:02;;;;;;;1.05;0.98;;;25.80;99.90;;;;;;5075028;28;20027;-58
2023/06/25 04:03:27;;;;;;;3.17;1.50;;;25.60;99.90;;;;;;5067907;28;20024;-58
2023/06/25 04:05:53;;;;;;;1.27;1.13;;;25.80;99.90;;;;;;5074624;28;20173;-58
2023/06/25 04:08:19;;;;;;;2.47;1.02;;;26.00;99.90;;;;;;5074304;28;20499;-57
2023/06/25 04:10:45;;;;;;;2.53;1.00;;;25.80;99.90;;;;;;5070216;28;20403;-58
2023/06/25 04:13:10;;;;;;;2.10;1.20;;;25.90;99.90;;;;;;5062883;28;20025;-59
2023/06/25 04:15:36;;;;;;;1.15;0.98;;;25.90;99.90;;;;;;5070182;28;20024;-57
2023/06/25 04:18:02;;;;;;;1.05;0.98;;;25.90;99.90;;;;;;5073296;28;20040;-59
2023/06/25 04:20:28;;;;;;;1.73;1.02;;;25.80;99.90;;;;;;5062986;28;20104;-58
2023/06/25 04:22:56;;;;;;;1.92;1.00;;;25.80;99.90;;;;;;5072804;28;20104;-59
2023/06/25 04:25:22;;;;;;;1.92;1.13;;;25.70;99.90;;;;;;5075490;28;20078;-58
2023/06/25 04:27:49;;;;;;;1.92;1.08;;;25.80;99.90;;;;;;5074028;28;20057;-59
2023/06/25 04:30:15;;;;;;;4.75;1.20;;;25.70;99.90;;;;;;5073012;28;20036;-58
2023/06/25 04:32:40;;;;;;;2.67;0.77;;;25.60;99.90;;;;;;5073050;28;20035;-58
2023/06/25 04:35:06;;;;;;;1.13;0.73;;;25.70;99.90;;;;;;5074409;28;20108;-59
2023/06/25 04:37:32;;;;;;;1.60;1.00;;;25.70;99.90;;;;;;5072771;28;20048;-58
2023/06/25 04:39:59;;;;;;;1.58;1.00;;;25.80;99.90;;;;;;5073972;28;20063;-58
2023/06/25 04:42:25;;;;;;;1.80;0.93;;;25.70;99.90;;;;;;5075162;28;20078;-56
2023/06/25 04:44:52;;;;;;;1.10;0.98;;;25.80;99.90;;;;;;5073889;28;20065;-58
2023/06/25 04:47:18;;;;;;;1.40;1.02;;;25.80;99.90;;;;;;5073107;28;20107;-58
2023/06/25 04:49:43;;;;;;;2.13;0.93;;;25.80;99.90;;;;;;5074822;28;20486;-57
2023/06/25 04:52:11;;;;;;;1.83;1.13;;;25.80;99.90;;;;;;5073763;28;20394;-59
2023/06/25 04:54:37;;;;;;;1.52;1.30;;;25.90;99.90;;;;;;5074904;28;20029;-59
2023/06/25 04:57:03;;;;;;;1.50;0.90;;;25.90;99.90;;;;;;5072480;28;20078;-58
2023/06/25 04:59:29;;;;;;;1.73;1.05;;;25.90;99.90;;;;;;5075084;28;20117;-59
2023/06/25 05:01:54;;;;;;;2.33;1.05;;;25.70;99.90;;;;;;5073564;28;20034;-57
2023/06/25 05:04:20;;;;;;;3.78;1.20;;;25.80;99.90;;;;;;5072148;28;20550;-57
2023/06/25 05:06:45;;;;;;;1.67;1.10;;;25.80;99.90;;;;;;5070908;28;20572;-58
2023/06/25 05:09:11;;;;;;;2.67;1.02;;;25.90;99.90;;;;;;5074549;28;20048;-55
2023/06/25 05:11:37;;;;;;;3.80;1.20;;;26.00;99.90;;;;;;5073370;28;20075;-58
2023/06/25 05:14:03;;;;;;;1.20;0.90;;;25.90;99.90;;;;;;5074544;28;20024;-57
2023/06/25 05:16:28;;;;;;;1.75;1.10;;;26.10;99.90;;;;;;5072269;28;20024;-57
2023/06/25 05:18:54;;;;;;;2.10;1.67;;;26.00;99.90;;;;;;5074592;28;20035;-57
2023/06/25 05:21:20;;;;;;;1.75;1.00;;;25.90;99.90;;;;;;5072087;28;20027;-58
2023/06/25 05:24:00;;;;;;;1.75;1.38;;;25.90;99.90;;;;;;5074109;28;20032;-58
2023/06/25 05:26:27;;;;;;;1.88;1.40;;;26.00;99.90;;;;;;5073368;28;20032;-58
2023/06/25 05:28:52;;;;;;;4.03;1.27;;;26.00;99.90;;;;;;5074064;28;20449;-57
2023/06/25 05:31:18;;;;;;;2.78;1.35;;;26.00;99.90;;;;;;5073042;28;20078;-58
2023/06/25 05:33:44;;;;;;;1.27;1.17;;;26.00;99.90;;;;;;5073306;28;20028;-58
2023/06/25 05:36:12;;;;;;;2.45;0.93;;;26.20;99.90;;;;;;5071569;28;20103;-59
2023/06/25 05:38:37;;;;;;;2.45;1.08;;;26.30;99.90;;;;;;5072916;28;20037;-55
2023/06/25 05:41:03;;;;;;;3.60;1.35;;;26.20;99.90;;;;;;5072531;28;20120;-58
2023/06/25 05:43:29;;;;;;;1.75;0.82;;;26.20;99.90;;;;;;5102233;28;20077;-58
2023/06/25 05:45:54;;;;;;;1.45;1.20;;;26.20;99.90;;;;;;5066810;28;20107;-58
2023/06/25 05:48:20;;;;;;;2.45;1.00;;;26.20;99.90;;;;;;5067136;28;20027;-57
2023/06/25 05:50:46;;;;;;;3.35;1.02;;;26.40;99.90;;;;;;5072937;28;20032;-57
2023/06/25 05:53:11;;;;;;;1.65;0.93;;;26.40;99.90;;;;;;5073722;28;20470;-57
2023/06/25 05:55:37;;;;;;;1.98;1.20;;;26.40;99.90;;;;;;5071425;28;20056;-57
2023/06/25 05:58:03;;;;;;;4.45;1.50;;;26.30;99.90;;;;;;5073915;28;20024;-58
2023/06/25 06:00:28;;;;;;;1.05;1.05;;;26.40;99.90;;;;;;5072851;28;20087;-58
2023/06/25 06:02:54;;;;;;;2.33;1.20;;;26.30;99.90;;;;;;5073329;28;20039;-58
2023/06/25 06:05:20;;;;;;;1.88;1.30;;;26.30;99.90;;;;;;5072531;28;20116;-58
2023/06/25 06:07:46;;;;;;;2.50;1.02;;;26.30;99.90;;;;;;5071100;28;20025;-57
2023/06/25 06:10:15;;;;;;;2.20;1.05;;;26.40;99.90;;;;;;5073315;28;20035;-59
2023/06/25 06:12:40;;;;;;;2.58;1.00;;;26.30;99.90;;;;;;5072511;28;20036;-57
2023/06/25 06:15:07;;;;;;;1.83;0.90;;;26.50;99.90;;;;;;5071024;28;20033;-57
2023/06/25 06:17:32;;;;;;;1.85;1.02;;;26.60;99.90;;;;;;5073374;28;20063;-58
2023/06/25 06:19:58;;;;;;;2.30;1.00;;;26.60;99.90;;;;;;5072122;28;20036;-57
2023/06/25 06:22:24;;;;;;;3.53;1.30;;;26.50;99.90;;;;;;5073518;28;20040;-58
2023/06/25 06:24:49;;;;;;;2.50;1.05;;;26.60;99.90;;;;;;5072819;28;20025;-58
2023/06/25 06:27:15;;;;;;;2.78;1.02;;;26.60;99.90;;;;;;5071573;28;20036;-57
2023/06/25 06:29:41;;;;;;;2.83;1.25;;;26.60;99.90;;;;;;5072860;28;20044;-57
2023/06/25 06:32:07;;;;;;;1.95;0.90;;;26.50;99.90;;;;;;5071987;28;20032;-56
2023/06/25 06:34:33;;;;;;;3.15;1.25;;;26.50;99.90;;;;;;5072199;28;20035;-57
2023/06/25 06:36:59;;;;;;;3.15;1.38;;;26.60;99.90;;;;;;5073115;28;20024;-57
2023/06/25 06:39:24;;;;;;;2.10;1.15;;;26.50;99.90;;;;;;5072108;28;20022;-57
2023/06/25 06:41:50;;;;;;;1.42;0.88;;;26.60;99.90;;;;;;5071071;28;20098;-57
2023/06/25 06:44:17;;;;;;;0.82;0.70;;;26.60;99.90;;;;;;5072004;28;20036;-56
2023/06/25 06:46:44;;;;;;;1.23;1.00;;;26.60;99.90;;;;;;5073082;28;20044;-56
2023/06/25 06:49:11;;;;;;;1.65;1.05;;;26.60;99.90;;;;;;5066442;28;20441;-58
2023/06/25 06:51:37;;;;;;;2.05;1.08;;;26.70;99.90;;;;;;5068561;28;20083;-58
2023/06/25 06:54:04;;;;;;;2.08;1.05;;;26.70;99.90;;;;;;5072493;28;20120;-58
2023/06/25 06:56:30;;;;;;;2.95;1.38;;;26.70;99.90;;;;;;5072890;28;20558;-58
2023/06/25 06:58:56;;;;;;;3.05;1.40;;;26.60;99.90;;;;;;5070981;28;20096;-58
2023/06/25 07:01:23;;;;;;;4.80;1.40;;;26.80;99.90;;;;;;5074427;28;20048;-59
2023/06/25 07:03:49;;;;;;;2.72;1.20;;;26.80;99.90;;;;;;5076465;28;20056;-58
2023/06/25 07:06:14;;;;;;;1.35;1.25;;;26.90;99.90;;;;;;5075668;28;20036;-58
2023/06/25 07:08:40;;;;;;;1.40;1.27;;;27.00;99.90;;;;;;5077244;28;20108;-57
2023/06/25 07:11:06;;;;;;;2.90;1.40;;;26.90;99.90;;;;;;5076793;28;20193;-57
2023/06/25 07:13:32;;;;;;;1.88;1.48;;;27.00;99.90;;;;;;5075973;28;20028;-58
2023/06/25 07:15:58;;;;;;;2.65;1.60;;;27.00;99.90;;;;;;5074761;28;20443;-57
2023/06/25 07:18:24;;;;;;;1.45;1.20;;;27.00;99.90;;;;;;5075667;28;20023;-58
2023/06/25 07:20:50;;;;;;;2.78;1.60;;;26.90;99.90;;;;;;5074782;28;20036;-57
2023/06/25 07:23:15;;;;;;;2.63;1.15;;;27.00;99.90;;;;;;5072972;28;20553;-57
2023/06/25 07:25:42;;;;;;;3.15;1.40;;;27.00;99.90;;;;;;5075958;28;20060;-58
2023/06/25 07:28:09;;;;;;;2.72;1.35;;;27.00;99.90;;;;;;5064910;28;20033;-56
2023/06/25 07:30:34;;;;;;;3.38;2.00;;;27.10;99.90;;;;;;5101670;28;20040;-55
2023/06/25 07:33:00;;;;;;;2.45;1.63;;;27.40;99.90;;;;;;5068836;28;20032;-58
2023/06/25 07:35:26;;;;;;;2.90;1.95;;;27.60;99.90;;;;;;5069312;28;20117;-56
2023/06/25 07:37:51;;;;;;;1.90;1.70;;;27.50;99.90;;;;;;5073781;28;20099;-55
2023/06/25 07:40:17;;;;;;;2.47;1.90;;;27.40;99.90;;;;;;5075370;28;20545;-55
2023/06/25 07:42:43;;;;;;;2.08;1.73;;;27.40;99.90;;;;;;5073892;28;20367;-66
2023/06/25 07:45:09;;;;;;;3.33;2.28;;;27.40;99.90;;;;;;5071807;28;20111;-73
2023/06/25 07:47:35;;;;;;;2.80;1.73;;;27.40;99.90;;;;;;5059474;28;20048;-68
2023/06/25 07:50:01;;;;;;;2.55;2.05;;;27.70;99.90;;;;;;5075367;28;20028;-64
2023/06/25 07:52:27;;;;;;;4.95;1.98;;;27.80;99.90;;;;;;5069854;28;20033;-62
2023/06/25 07:54:53;;;;;;;2.00;1.80;;;28.10;99.90;;;;;;5061849;28;20024;-63
2023/06/25 07:57:19;;;;;;;4.75;2.20;;;28.40;99.90;;;;;;5073488;28;20056;-62
2023/06/25 07:59:45;;;;;;;4.70;1.70;;;28.30;99.90;;;;;;5075811;28;20390;-63
2023/06/25 08:02:11;;;;;;;5.75;1.95;;;28.40;99.90;;;;;;5074682;28;20161;-62
2023/06/25 08:04:36;;;;;;;4.47;2.22;;;28.40;99.90;;;;;;5075409;28;20071;-61
2023/06/25 08:07:02;;;;;;;2.00;1.80;;;28.10;99.90;;;;;;5072940;28;20082;-61
2023/06/25 08:09:28;;;;;;;2.28;2.00;;;28.10;99.90;;;;;;5072783;28;20111;-62
2023/06/25 08:11:54;;;;;;;5.85;2.72;;;27.90;99.90;;;;;;5061894;28;20123;-60
2023/06/25 08:14:19;;;;;;;2.72;2.17;;;27.80;99.90;;;;;;5075865;28;20048;-64
2023/06/25 08:16:45;;;;;;;2.53;2.20;;;27.90;99.90;;;;;;5061757;28;20477;-67
2023/06/25 08:19:10;;;;;;;2.55;2.35;;;27.90;99.90;;;;;;5075263;28;20389;-61
2023/06/25 08:21:36;;;;;;;3.15;2.70;;;28.30;99.90;;;;;;5075324;28;20501;-61
2023/06/25 08:24:02;;;;;;;3.25;2.38;;;27.90;99.90;;;;;;5074487;28;20039;-66
2023/06/25 08:26:28;;;;;;;4.50;1.58;;;27.90;99.90;;;;;;5073681;28;20032;-60
2023/06/25 08:28:53;;;;;;;2.95;1.95;;;27.80;99.90;;;;;;5073092;28;20389;-61
2023/06/25 08:31:19;;;;;;;2.30;2.00;;;28.00;99.90;;;;;;5071869;28;20486;-58
2023/06/25 08:33:45;;;;;;;3.72;2.60;;;28.20;99.90;;;;;;5075974;28;20024;-62
2023/06/25 08:36:10;;;;;;;3.10;2.90;;;28.40;99.90;;;;;;5074307;28;20092;-61
2023/06/25 08:38:36;;;;;;;2.13;1.92;;;28.20;99.90;;;;;;5075500;28;20115;-61
2023/06/25 08:41:02;;;;;;;3.20;1.60;;;28.40;99.90;;;;;;5073954;28;20039;-66
2023/06/25 08:43:29;;;;;;;3.45;1.88;;;28.50;99.90;;;;;;5075228;28;20036;-65
2023/06/25 08:45:54;;;;;;;1.92;1.67;;;28.30;99.90;;;;;;5074226;28;20017;-64
2023/06/25 08:48:23;;;;;;;3.10;1.80;;;28.60;99.90;;;;;;5071501;28;20028;-64
2023/06/25 08:50:57;;;;;;;2.28;1.80;;;29.10;99.90;;;;;;5107036;28;20490;-65
2023/06/25 08:53:25;;;;;;;3.42;2.10;;;29.30;99.90;;;;;;5074466;28;20371;-61
2023/06/25 08:55:53;;;;;;;1.95;1.85;;;29.90;99.90;;;;;;5075356;28;20036;-63
2023/06/25 08:58:21;;;;;;;2.05;1.80;;;30.40;99.90;;;;;;5073514;28;20016;-65
2023/06/25 09:00:47;;;;;;;2.38;1.58;;;30.70;99.90;;;;;;5073401;28;20031;-63
2023/06/25 09:03:12;;;;;;;9.55;2.17;;;30.60;99.90;;;;;;5074770;28;20027;-61
2023/06/25 09:05:38;;;;;;;2.45;2.25;;;31.20;99.90;;;;;;5073899;28;20156;-65
2023/06/25 09:08:04;;;;;;;2.67;1.70;;;31.20;99.90;;;;;;5074646;28;20024;-65
2023/06/25 09:10:31;;;;;;;1.70;1.60;;;31.10;99.90;;;;;;5072227;28;20040;-67
2023/06/25 09:13:00;;;;;;;1.83;1.73;;;31.40;99.90;;;;;;5073120;28;20028;-71
2023/06/25 09:15:26;;;;;;;3.97;2.30;;;31.40;99.90;;;;;;5074389;28;20031;-67
2023/06/25 09:17:56;;;;;;;1.70;1.60;;;31.10;99.90;;;;;;5074644;28;20032;-66
2023/06/25 09:20:22;;;;;;;3.15;2.50;;;31.00;99.90;;;;;;5061774;28;20024;-67
2023/06/25 09:22:50;;;;;;;2.65;2.22;;;30.30;99.90;;;;;;5073154;28;20025;-72
2023/06/25 09:25:17;;;;;;;2.00;1.90;;;30.50;99.90;;;;;;5073315;28;20355;-69
2023/06/25 09:27:43;;;;;;;2.72;1.45;;;30.20;99.90;;;;;;5066843;28;20031;-65
2023/06/25 09:30:12;;;;;;;1.40;1.30;;;30.20;99.90;;;;;;5072644;28;20047;-70
2023/06/25 09:33:09;;;;;;;2.75;1.80;;;31.60;99.90;;;;;;5071868;28;20021;-73
2023/06/25 09:35:35;;;;;;;2.08;1.88;;;31.80;99.90;;;;;;5072630;28;20072;-67
2023/06/25 09:38:02;;;;;;;2.63;1.50;;;31.00;99.90;;;;;;5071080;28;20059;-69
2023/06/25 09:40:28;;;;;;;2.00;1.85;;;30.60;99.90;;;;;;5074440;28;20009;-66
2023/06/25 09:42:56;;;;;;;1.73;1.63;;;31.10;99.90;;;;;;5073306;28;20033;-61
2023/06/25 09:45:24;;;;;;;4.20;1.73;;;30.90;99.90;;;;;;5070056;28;20033;-67
2023/06/25 09:47:53;;;;;;;4.07;2.00;;;31.60;99.90;;;;;;5067840;28;20112;-66
2023/06/25 09:50:30;;;;;;;1.60;1.50;;;31.80;99.90;;;;;;5073514;28;20029;-66
2023/06/25 09:52:58;;;;;;;2.75;1.80;;;31.70;99.90;;;;;;5073155;28;20428;-63
2023/06/25 09:55:27;;;;;;;2.20;1.63;;;31.40;99.90;;;;;;5073726;28;20028;-59
2023/06/25 09:57:54;;;;;;;3.08;2.15;;;31.10;99.90;;;;;;5068637;28;20382;-62
2023/06/25 10:00:21;;;;;;;1.67;1.58;;;31.40;99.90;;;;;;5073737;28;20039;-63
2023/06/25 10:02:47;;;;;;;1.75;1.63;;;32.00;99.90;;;;;;5071319;28;20482;-62
2023/06/25 10:05:13;;;;;;;2.95;1.77;;;32.30;99.90;;;;;;5073645;28;20036;-61
2023/06/25 10:07:40;;;;;;;3.20;1.90;;;32.40;99.90;;;;;;5067240;28;20028;-65
2023/06/25 10:10:07;;;;;;;2.17;1.98;;;31.90;99.90;;;;;;5071880;28;20114;-66
2023/06/25 10:12:35;;;;;;;2.05;1.70;;;31.40;99.90;;;;;;5069774;28;20033;-66
2023/06/25 10:15:03;;;;;;;1.85;1.75;;;31.10;99.90;;;;;;5072742;28;20107;-66
2023/06/25 10:17:29;;;;;;;2.03;1.83;;;31.30;99.90;;;;;;5067358;28;20025;-66
2023/06/25 10:20:00;;;;;;;2.00;1.80;;;31.20;99.90;;;;;;5072829;28;20020;-66
2023/06/25 10:22:27;;;;;;;1.88;1.77;;;30.90;99.90;;;;;;5065298;28;20032;-66
2023/06/25 10:24:55;;;;;;;1.65;1.55;;;31.30;99.90;;;;;;5071153;28;20056;-66
2023/06/25 10:27:24;;;;;;;2.17;1.95;;;31.20;99.90;;;;;;5069409;28;20028;-66
2023/06/25 10:29:50;;;;;;;2.80;2.58;;;31.30;99.90;;;;;;5072407;28;20051;-66
2023/06/25 10:32:20;;;;;;;2.75;1.90;;;31.50;99.90;;;;;;5071554;28;20093;-66
2023/06/25 10:34:52;;;;;;;1.90;1.80;;;31.10;99.90;;;;;;5070693;28;20036;-66
2023/06/25 10:37:18;;;;;;;3.53;1.48;;;31.10;99.90;;;;;;5066387;28;20017;-66
2023/06/25 10:39:43;;;;;;;1.77;1.67;;;31.10;99.90;;;;;;5072714;28;20406;-66
2023/06/25 10:42:11;;;;;;;2.38;2.17;;;30.80;99.90;;;;;;5070074;28;20131;-66
2023/06/25 10:44:37;;;;;;;2.13;1.92;;;30.90;99.90;;;;;;5068843;28;20032;-66
2023/06/25 10:47:07;;;;;;;1.95;1.85;;;30.80;99.90;;;;;;5065007;28;20028;-66
2023/06/25 10:49:33;;;;;;;5.13;1.85;;;31.20;99.90;;;;;;5064697;28;20032;-68
2023/06/25 10:52:00;;;;;;;4.05;2.05;;;31.60;99.90;;;;;;5062868;28;20510;-69
2023/06/25 10:54:26;;;;;;;2.97;1.70;;;31.30;99.90;;;;;;5071684;28;20036;-68
2023/06/25 10:57:12;;;;;;;2.90;1.75;;;31.20;99.90;;;;;;5097985;28;20024;-66
2023/06/25 10:59:39;;;;;;;3.05;1.80;;;31.00;99.90;;;;;;5069795;28;20481;-68
2023/06/25 11:02:13;;;;;;;2.58;2.38;;;30.80;99.90;;;;;;5071157;28;20032;-68
2023/06/25 11:04:39;;;;;;;4.35;2.97;;;31.20;99.90;;;;;;5070504;28;20024;-68
2023/06/25 11:07:04;;;;;;;3.00;2.30;;;31.80;99.90;;;;;;5069666;28;20033;-67
2023/06/25 11:09:30;;;;;;;3.35;2.15;;;32.40;99.90;;;;;;5071274;28;20155;-77
2023/06/25 11:11:56;;;;;;;3.50;1.95;;;32.30;99.90;;;;;;5066962;28;20044;-74
2023/06/25 11:14:23;;;;;;;5.95;2.30;;;31.90;99.90;;;;;;5071117;28;20032;-73
2023/06/25 11:16:48;;;;;;;2.75;2.28;;;32.30;99.90;;;;;;5065067;28;20028;-64
2023/06/25 11:19:14;;;;;;;2.40;2.20;;;32.70;99.90;;;;;;5062498;28;20056;-64
2023/06/25 11:21:40;;;;;;;3.15;2.00;;;35.00;99.90;;;;;;5070813;28;20035;-65
2023/06/25 11:24:09;;;;;;;2.13;2.03;;;37.90;99.90;;;;;;5069128;28;20043;-64
2023/06/25 11:26:42;;;;;;;2.53;2.20;;;40.20;99.90;;;;;;5069371;28;20052;-65
2023/06/25 11:29:09;;;;;;;2.35;2.25;;;40.80;99.90;;;;;;5066572;28;20451;-64
2023/06/25 11:31:48;;;;;;;2.75;2.10;;;42.40;99.90;;;;;;5063999;28;20051;-64
2023/06/25 11:34:21;;;;;;;2.53;2.42;;;44.10;99.90;;;;;;5068089;28;20041;-64
2023/06/25 11:36:47;;;;;;;2.80;2.60;;;45.70;99.90;;;;;;5056495;28;20029;-65
2023/06/25 11:39:13;;;;;;;4.45;2.90;;;45.90;99.90;;;;;;5091937;28;20024;-65
2023/06/25 11:41:39;;;;;;;3.15;2.95;;;46.40;99.90;;;;;;5060758;28;20067;-65
2023/06/25 11:44:16;;;;;;;3.85;3.65;;;46.30;99.90;;;;;;5070157;28;20060;-65
2023/06/25 11:46:42;;;;;;;4.22;3.70;;;46.40;99.90;;;;;;5073349;28;20033;-64
2023/06/25 11:49:08;;;;;;;3.70;3.50;;;45.80;99.90;;;;;;5073117;28;20101;-64
2023/06/25 11:51:34;;;;;;;3.60;3.40;;;47.40;99.90;;;;;;5064822;28;20040;-64
2023/06/25 11:54:00;;;;;;;3.72;3.53;;;47.60;99.90;;;;;;5075076;28;20479;-65
2023/06/25 11:56:25;;;;;;;3.60;3.50;;;45.90;99.90;;;;;;5073985;28;20045;-65
2023/06/25 11:58:51;;;;;;;4.47;4.28;;;47.00;99.90;;;;;;5074883;28;20386;-64
2023/06/25 12:01:18;;;;;;;7.35;6.70;;;46.70;99.90;;;;;;5072787;28;20024;-64
2023/06/25 12:03:43;;;;;;;4.50;4.20;;;45.40;99.90;;;;;;5074029;28;20040;-65
2023/06/25 12:06:09;;;;;;;5.03;4.72;;;44.60;99.90;;;;;;5072874;28;20047;-64
2023/06/25 12:08:35;;;;;;;4.40;4.20;;;45.70;99.90;;;;;;5066914;28;20024;-65
2023/06/25 12:11:00;;;;;;;5.78;5.20;;;45.10;99.90;;;;;;5066831;28;20416;-65
2023/06/25 12:13:26;;;;;;;6.40;5.88;;;43.70;99.90;;;;;;5072502;28;20033;-64
2023/06/25 12:15:52;;;;;;;4.97;4.78;;;42.30;99.90;;;;;;5073646;28;20044;-64
2023/06/25 12:18:17;;;;;;;4.38;4.10;;;40.70;99.90;;;;;;5073583;28;20037;-65
2023/06/25 12:20:43;;;;;;;4.50;4.30;;;41.70;99.90;;;;;;5063683;28;20098;-65
2023/06/25 12:23:09;;;;;;;5.05;4.65;;;43.20;99.90;;;;;;5073641;28;20039;-65
2023/06/25 12:25:34;;;;;;;5.63;5.20;;;42.00;99.90;;;;;;5072816;28;20025;-65
2023/06/25 12:28:00;;;;;;;4.95;4.55;;;39.90;99.90;;;;;;5073485;28;20060;-64
2023/06/25 12:30:26;;;;;;;4.65;4.45;;;39.80;99.90;;;;;;5070723;28;20044;-65
2023/06/25 12:32:51;;;;;;;4.25;3.95;;;40.60;99.90;;;;;;5073889;28;20028;-64
2023/06/25 12:35:18;;;;;;;4.18;3.95;;;39.60;99.90;;;;;;5072569;28;20086;-65
2023/06/25 12:37:43;;;;;;;4.30;3.90;;;38.50;99.90;;;;;;5073114;28;20035;-64
2023/06/25 12:40:10;;;;;;;4.82;4.40;;;38.20;99.90;;;;;;5073017;28;20028;-65
2023/06/25 12:42:36;;;;;;;5.03;4.20;;;39.60;99.90;;;;;;5072931;28;20036;-65
2023/06/25 12:45:01;;;;;;;4.50;4.20;;;42.40;99.90;;;;;;5073772;28;20508;-64